ROTAER AMDT 29/18 AMDT 3/19

TARAUACA ( SBTK ) / TARAUACÁ, AC 08 09 17S/070 46 58W
AD PUB 2SE UTC-5 197 (646)

14 - ( 1130x14 ASPH 5700kg/0.5MPa ) - 32

SBAZ (CINDACTA 4)
COM -
RÁDIO [1] [2] 125.900
MET -

[1] [2] [3] CMA Autoatendimento

AIS - [1] [4] Autoatendimento

RMK -

OBSTÁCULO DE AERÓDROMO
  1. OBST (torre metálica) NEG LGTD COORD 08 08 55S/070 46 59W ELEV 944.87FT
  2. OBS torre DIST 750M THR 32 e 550M à direita RCL com ELEV 1034FT e HGT 262FT
INFORMAÇÃO ADICIONAL
  1. OBS concentração de pássaros (urubus) nas proximidades da THR 32 e na perna do vento da RWY 14
COMPL -
  • [1] OPR INFRAERO
  • [2] (MON,TUE,WED,THU,FRI 1115-2245)
  • [3] Dúvidas sobre a utilização do portal www.redemet.aer.mil.br e demais informações consultar o Centro Meteorológico de Vigilância Amazônico TEL:(92) 3652-5374 e (92) 3652-5375
  • [4] Para INFO ADDN, consultar o C-AIS Amazônico THRU TEL:(92) 3652-5955.
TEMP (0)

Suplementos AIP (0)

NOTAM (3)

G1361/18 R G0964/18 03/12/2018 19:54
AFIS CLSD


G1196/18 N 23/10/2018 17:59
MET CMA (AUTOATENDIMENTO) CLSD


G1195/18 N 23/10/2018 17:53
AIS CLSD


Nascer/Por do Sol

10:36

23:09


METAR

Não disponível

TAF

151600Z 1518/1606 04005KT 9999 SCT030 TX35/1519Z TN22/1606Z BECMG 1522/1524 00000KT CAVOK RMK PEP=


Cartas (0)